sensor_id;sensor_type;location;lat;lon;timestamp;P1;durP1;ratioP1;P2;durP2;ratioP2
6661;SDS011;3367;48.714;8.994;2023-02-27T00:02:03;2.00;;;1.33;;
6661;SDS011;3367;48.714;8.994;2023-02-27T00:04:30;1.30;;;1.20;;
6661;SDS011;3367;48.714;8.994;2023-02-27T00:06:57;2.23;;;1.50;;
6661;SDS011;3367;48.714;8.994;2023-02-27T00:09:24;2.20;;;1.33;;
6661;SDS011;3367;48.714;8.994;2023-02-27T00:11:52;5.23;;;1.57;;
6661;SDS011;3367;48.714;8.994;2023-02-27T00:14:19;1.40;;;1.30;;
6661;SDS011;3367;48.714;8.994;2023-02-27T00:16:46;5.00;;;1.77;;
6661;SDS011;3367;48.714;8.994;2023-02-27T00:19:13;1.87;;;1.40;;
6661;SDS011;3367;48.714;8.994;2023-02-27T00:21:40;2.10;;;0.90;;
6661;SDS011;3367;48.714;8.994;2023-02-27T00:24:08;2.70;;;1.40;;
6661;SDS011;3367;48.714;8.994;2023-02-27T00:26:35;1.83;;;1.30;;
6661;SDS011;3367;48.714;8.994;2023-02-27T00:29:04;1.77;;;1.00;;
6661;SDS011;3367;48.714;8.994;2023-02-27T00:31:32;2.13;;;1.60;;
6661;SDS011;3367;48.714;8.994;2023-02-27T00:33:59;1.43;;;1.30;;
6661;SDS011;3367;48.714;8.994;2023-02-27T00:36:26;3.83;;;1.43;;
6661;SDS011;3367;48.714;8.994;2023-02-27T00:38:53;3.03;;;1.77;;
6661;SDS011;3367;48.714;8.994;2023-02-27T00:41:19;2.30;;;1.30;;
6661;SDS011;3367;48.714;8.994;2023-02-27T00:43:46;1.30;;;1.20;;
6661;SDS011;3367;48.714;8.994;2023-02-27T00:46:14;1.47;;;1.37;;
6661;SDS011;3367;48.714;8.994;2023-02-27T00:48:41;1.17;;;1.07;;
6661;SDS011;3367;48.714;8.994;2023-02-27T00:51:08;1.37;;;1.27;;
6661;SDS011;3367;48.714;8.994;2023-02-27T00:53:34;1.10;;;1.10;;
6661;SDS011;3367;48.714;8.994;2023-02-27T00:56:01;1.20;;;1.03;;
6661;SDS011;3367;48.714;8.994;2023-02-27T00:58:28;1.00;;;0.90;;
6661;SDS011;3367;48.714;8.994;2023-02-27T01:00:57;6.30;;;1.60;;
6661;SDS011;3367;48.714;8.994;2023-02-27T01:03:25;2.37;;;2.13;;
6661;SDS011;3367;48.714;8.994;2023-02-27T01:05:52;2.47;;;1.60;;
6661;SDS011;3367;48.714;8.994;2023-02-27T01:08:19;1.80;;;1.10;;
6661;SDS011;3367;48.714;8.994;2023-02-27T01:10:46;1.53;;;1.40;;
6661;SDS011;3367;48.714;8.994;2023-02-27T01:13:12;1.53;;;1.40;;
6661;SDS011;3367;48.714;8.994;2023-02-27T01:15:39;1.73;;;1.20;;
6661;SDS011;3367;48.714;8.994;2023-02-27T01:18:06;1.97;;;1.40;;
6661;SDS011;3367;48.714;8.994;2023-02-27T01:20:34;1.93;;;1.47;;
6661;SDS011;3367;48.714;8.994;2023-02-27T01:23:01;1.33;;;1.23;;
6661;SDS011;3367;48.714;8.994;2023-02-27T01:25:28;2.10;;;1.47;;
6661;SDS011;3367;48.714;8.994;2023-02-27T01:27:54;2.10;;;1.37;;
6661;SDS011;3367;48.714;8.994;2023-02-27T01:30:21;1.50;;;1.40;;
6661;SDS011;3367;48.714;8.994;2023-02-27T01:32:48;1.77;;;1.30;;
6661;SDS011;3367;48.714;8.994;2023-02-27T01:35:15;1.77;;;1.63;;
6661;SDS011;3367;48.714;8.994;2023-02-27T01:37:43;2.70;;;1.43;;
6661;SDS011;3367;48.714;8.994;2023-02-27T01:40:10;2.10;;;1.13;;
6661;SDS011;3367;48.714;8.994;2023-02-27T01:42:38;1.53;;;1.40;;
6661;SDS011;3367;48.714;8.994;2023-02-27T01:45:09;2.10;;;1.30;;
6661;SDS011;3367;48.714;8.994;2023-02-27T01:47:54;2.03;;;1.53;;
6661;SDS011;3367;48.714;8.994;2023-02-27T01:50:25;1.50;;;1.40;;
6661;SDS011;3367;48.714;8.994;2023-02-27T01:52:53;3.50;;;1.60;;
6661;SDS011;3367;48.714;8.994;2023-02-27T01:55:23;1.67;;;1.53;;
6661;SDS011;3367;48.714;8.994;2023-02-27T01:57:52;5.43;;;2.10;;
6661;SDS011;3367;48.714;8.994;2023-02-27T02:00:20;2.40;;;1.63;;
6661;SDS011;3367;48.714;8.994;2023-02-27T02:02:48;2.33;;;1.63;;
6661;SDS011;3367;48.714;8.994;2023-02-27T02:05:18;3.10;;;1.43;;
6661;SDS011;3367;48.714;8.994;2023-02-27T02:07:47;2.10;;;1.33;;
6661;SDS011;3367;48.714;8.994;2023-02-27T02:10:16;2.20;;;1.50;;
6661;SDS011;3367;48.714;8.994;2023-02-27T02:12:44;2.10;;;1.50;;
6661;SDS011;3367;48.714;8.994;2023-02-27T02:15:12;2.57;;;1.40;;
6661;SDS011;3367;48.714;8.994;2023-02-27T02:17:41;2.57;;;1.53;;
6661;SDS011;3367;48.714;8.994;2023-02-27T02:23:19;1.83;;;1.50;;
6661;SDS011;3367;48.714;8.994;2023-02-27T02:26:30;2.00;;;1.37;;
6661;SDS011;3367;48.714;8.994;2023-02-27T02:29:30;1.73;;;1.63;;
6661;SDS011;3367;48.714;8.994;2023-02-27T02:32:26;2.70;;;1.50;;
6661;SDS011;3367;48.714;8.994;2023-02-27T02:35:30;6.20;;;2.07;;
6661;SDS011;3367;48.714;8.994;2023-02-27T02:38:49;2.23;;;2.00;;
6661;SDS011;3367;48.714;8.994;2023-02-27T02:41:26;5.33;;;1.90;;
6661;SDS011;3367;48.714;8.994;2023-02-27T02:44:02;2.07;;;1.73;;
6661;SDS011;3367;48.714;8.994;2023-02-27T02:46:34;2.03;;;1.60;;
6661;SDS011;3367;48.714;8.994;2023-02-27T02:49:10;5.93;;;1.67;;
6661;SDS011;3367;48.714;8.994;2023-02-27T02:51:43;2.73;;;1.90;;
6661;SDS011;3367;48.714;8.994;2023-02-27T02:54:15;4.70;;;2.37;;
6661;SDS011;3367;48.714;8.994;2023-02-27T02:56:48;2.83;;;2.37;;
6661;SDS011;3367;48.714;8.994;2023-02-27T02:59:21;2.93;;;1.93;;
6661;SDS011;3367;48.714;8.994;2023-02-27T03:01:54;2.60;;;1.63;;
6661;SDS011;3367;48.714;8.994;2023-02-27T03:04:26;2.53;;;2.33;;
6661;SDS011;3367;48.714;8.994;2023-02-27T03:06:58;2.50;;;1.67;;
6661;SDS011;3367;48.714;8.994;2023-02-27T03:09:32;4.47;;;1.70;;
6661;SDS011;3367;48.714;8.994;2023-02-27T03:12:02;2.00;;;1.60;;
6661;SDS011;3367;48.714;8.994;2023-02-27T03:14:35;5.23;;;2.17;;
6661;SDS011;3367;48.714;8.994;2023-02-27T03:17:06;4.70;;;1.80;;
6661;SDS011;3367;48.714;8.994;2023-02-27T03:19:36;1.80;;;1.57;;
6661;SDS011;3367;48.714;8.994;2023-02-27T03:22:09;3.47;;;2.33;;
6661;SDS011;3367;48.714;8.994;2023-02-27T03:24:41;3.07;;;1.80;;
6661;SDS011;3367;48.714;8.994;2023-02-27T03:27:12;1.90;;;1.80;;
6661;SDS011;3367;48.714;8.994;2023-02-27T03:29:41;2.27;;;2.10;;
6661;SDS011;3367;48.714;8.994;2023-02-27T03:32:13;3.40;;;2.10;;
6661;SDS011;3367;48.714;8.994;2023-02-27T03:34:45;6.57;;;2.40;;
6661;SDS011;3367;48.714;8.994;2023-02-27T03:37:16;2.40;;;2.20;;
6661;SDS011;3367;48.714;8.994;2023-02-27T03:39:53;3.87;;;2.07;;
6661;SDS011;3367;48.714;8.994;2023-02-27T03:42:28;3.17;;;2.20;;
6661;SDS011;3367;48.714;8.994;2023-02-27T03:44:59;2.17;;;2.03;;
6661;SDS011;3367;48.714;8.994;2023-02-27T03:47:30;3.43;;;1.90;;
6661;SDS011;3367;48.714;8.994;2023-02-27T03:49:58;2.80;;;2.03;;
6661;SDS011;3367;48.714;8.994;2023-02-27T03:52:25;4.60;;;1.93;;
6661;SDS011;3367;48.714;8.994;2023-02-27T03:54:56;2.60;;;2.40;;
6661;SDS011;3367;48.714;8.994;2023-02-27T03:57:25;2.40;;;1.73;;
6661;SDS011;3367;48.714;8.994;2023-02-27T03:59:53;3.40;;;2.40;;
6661;SDS011;3367;48.714;8.994;2023-02-27T04:02:20;2.70;;;2.40;;
6661;SDS011;3367;48.714;8.994;2023-02-27T04:04:47;5.10;;;2.17;;
6661;SDS011;3367;48.714;8.994;2023-02-27T04:07:15;2.50;;;2.30;;
6661;SDS011;3367;48.714;8.994;2023-02-27T04:12:44;3.20;;;2.57;;
6661;SDS011;3367;48.714;8.994;2023-02-27T04:15:26;4.50;;;2.40;;
6661;SDS011;3367;48.714;8.994;2023-02-27T04:18:02;2.00;;;1.90;;
6661;SDS011;3367;48.714;8.994;2023-02-27T04:20:43;2.37;;;2.10;;
6661;SDS011;3367;48.714;8.994;2023-02-27T04:23:12;5.00;;;2.70;;
6661;SDS011;3367;48.714;8.994;2023-02-27T04:25:51;2.87;;;2.60;;
6661;SDS011;3367;48.714;8.994;2023-02-27T04:28:30;4.50;;;2.27;;
6661;SDS011;3367;48.714;8.994;2023-02-27T04:31:07;2.40;;;2.30;;
6661;SDS011;3367;48.714;8.994;2023-02-27T04:33:41;3.10;;;2.60;;
6661;SDS011;3367;48.714;8.994;2023-02-27T04:36:11;3.90;;;2.40;;
6661;SDS011;3367;48.714;8.994;2023-02-27T04:38:44;2.80;;;2.43;;
6661;SDS011;3367;48.714;8.994;2023-02-27T04:41:18;2.40;;;2.20;;
6661;SDS011;3367;48.714;8.994;2023-02-27T04:43:46;2.97;;;2.53;;
6661;SDS011;3367;48.714;8.994;2023-02-27T04:46:15;3.97;;;2.07;;
6661;SDS011;3367;48.714;8.994;2023-02-27T04:48:46;2.23;;;2.13;;
6661;SDS011;3367;48.714;8.994;2023-02-27T04:51:19;5.23;;;2.53;;
6661;SDS011;3367;48.714;8.994;2023-02-27T04:53:49;4.83;;;2.37;;
6661;SDS011;3367;48.714;8.994;2023-02-27T04:56:21;3.03;;;2.73;;
6661;SDS011;3367;48.714;8.994;2023-02-27T04:58:51;2.73;;;2.20;;
6661;SDS011;3367;48.714;8.994;2023-02-27T05:01:22;2.70;;;2.40;;
6661;SDS011;3367;48.714;8.994;2023-02-27T05:03:56;3.37;;;2.60;;
6661;SDS011;3367;48.714;8.994;2023-02-27T05:06:24;5.57;;;2.70;;
6661;SDS011;3367;48.714;8.994;2023-02-27T05:08:55;3.40;;;2.43;;
6661;SDS011;3367;48.714;8.994;2023-02-27T05:11:30;2.70;;;2.10;;
6661;SDS011;3367;48.714;8.994;2023-02-27T05:14:03;2.53;;;2.33;;
6661;SDS011;3367;48.714;8.994;2023-02-27T05:16:35;3.67;;;2.47;;
6661;SDS011;3367;48.714;8.994;2023-02-27T05:19:06;2.90;;;2.30;;
6661;SDS011;3367;48.714;8.994;2023-02-27T05:21:35;3.00;;;2.60;;
6661;SDS011;3367;48.714;8.994;2023-02-27T05:24:07;3.90;;;2.47;;
6661;SDS011;3367;48.714;8.994;2023-02-27T05:26:52;3.50;;;2.47;;
6661;SDS011;3367;48.714;8.994;2023-02-27T05:29:30;3.73;;;2.40;;
6661;SDS011;3367;48.714;8.994;2023-02-27T05:32:03;3.77;;;2.67;;
6661;SDS011;3367;48.714;8.994;2023-02-27T05:34:40;4.60;;;2.77;;
6661;SDS011;3367;48.714;8.994;2023-02-27T05:37:13;3.30;;;3.07;;
6661;SDS011;3367;48.714;8.994;2023-02-27T05:39:43;4.33;;;2.90;;
6661;SDS011;3367;48.714;8.994;2023-02-27T05:42:13;4.40;;;2.80;;
6661;SDS011;3367;48.714;8.994;2023-02-27T05:44:46;4.53;;;3.37;;
6661;SDS011;3367;48.714;8.994;2023-02-27T05:47:20;3.50;;;3.20;;
6661;SDS011;3367;48.714;8.994;2023-02-27T05:49:51;3.20;;;2.90;;
6661;SDS011;3367;48.714;8.994;2023-02-27T05:52:23;5.80;;;3.90;;
6661;SDS011;3367;48.714;8.994;2023-02-27T05:54:52;4.53;;;3.07;;
6661;SDS011;3367;48.714;8.994;2023-02-27T05:57:26;3.10;;;2.83;;
6661;SDS011;3367;48.714;8.994;2023-02-27T05:59:58;2.67;;;2.40;;
6661;SDS011;3367;48.714;8.994;2023-02-27T06:02:28;3.67;;;3.30;;
6661;SDS011;3367;48.714;8.994;2023-02-27T06:04:55;9.07;;;3.17;;
6661;SDS011;3367;48.714;8.994;2023-02-27T06:07:21;4.30;;;3.20;;
6661;SDS011;3367;48.714;8.994;2023-02-27T06:09:48;4.13;;;3.00;;
6661;SDS011;3367;48.714;8.994;2023-02-27T06:12:16;6.30;;;3.73;;
6661;SDS011;3367;48.714;8.994;2023-02-27T06:14:44;4.63;;;3.10;;
6661;SDS011;3367;48.714;8.994;2023-02-27T06:17:11;6.20;;;3.27;;
6661;SDS011;3367;48.714;8.994;2023-02-27T06:19:38;4.80;;;3.30;;
6661;SDS011;3367;48.714;8.994;2023-02-27T06:22:04;4.93;;;3.60;;
6661;SDS011;3367;48.714;8.994;2023-02-27T06:24:31;4.03;;;3.00;;
6661;SDS011;3367;48.714;8.994;2023-02-27T06:26:58;3.63;;;3.33;;
6661;SDS011;3367;48.714;8.994;2023-02-27T06:29:24;3.20;;;3.00;;
6661;SDS011;3367;48.714;8.994;2023-02-27T06:31:52;6.33;;;3.03;;
6661;SDS011;3367;48.714;8.994;2023-02-27T06:34:19;3.17;;;2.60;;
6661;SDS011;3367;48.714;8.994;2023-02-27T06:36:46;7.93;;;3.57;;
6661;SDS011;3367;48.714;8.994;2023-02-27T06:39:13;5.37;;;2.73;;
6661;SDS011;3367;48.714;8.994;2023-02-27T06:41:40;4.23;;;3.10;;
6661;SDS011;3367;48.714;8.994;2023-02-27T06:44:07;4.60;;;3.63;;
6661;SDS011;3367;48.714;8.994;2023-02-27T06:46:34;3.20;;;2.90;;
6661;SDS011;3367;48.714;8.994;2023-02-27T06:49:02;4.13;;;3.20;;
6661;SDS011;3367;48.714;8.994;2023-02-27T06:51:28;6.50;;;3.80;;
6661;SDS011;3367;48.714;8.994;2023-02-27T06:53:55;3.67;;;3.30;;
6661;SDS011;3367;48.714;8.994;2023-02-27T06:56:22;4.90;;;3.10;;
6661;SDS011;3367;48.714;8.994;2023-02-27T06:58:49;5.10;;;2.63;;
6661;SDS011;3367;48.714;8.994;2023-02-27T07:01:15;3.50;;;3.07;;
6661;SDS011;3367;48.714;8.994;2023-02-27T07:03:42;3.63;;;2.70;;
6661;SDS011;3367;48.714;8.994;2023-02-27T07:06:10;4.40;;;2.50;;
6661;SDS011;3367;48.714;8.994;2023-02-27T07:08:37;7.30;;;3.20;;
6661;SDS011;3367;48.714;8.994;2023-02-27T07:11:04;8.23;;;2.80;;
6661;SDS011;3367;48.714;8.994;2023-02-27T07:13:31;6.60;;;3.13;;
6661;SDS011;3367;48.714;8.994;2023-02-27T07:15:57;3.30;;;3.00;;
6661;SDS011;3367;48.714;8.994;2023-02-27T07:18:24;3.30;;;2.90;;
6661;SDS011;3367;48.714;8.994;2023-02-27T07:20:51;3.23;;;2.93;;
6661;SDS011;3367;48.714;8.994;2023-02-27T07:23:20;5.80;;;2.87;;
6661;SDS011;3367;48.714;8.994;2023-02-27T07:25:47;3.20;;;2.50;;
6661;SDS011;3367;48.714;8.994;2023-02-27T07:28:14;4.30;;;2.70;;
6661;SDS011;3367;48.714;8.994;2023-02-27T07:30:41;5.50;;;2.83;;
6661;SDS011;3367;48.714;8.994;2023-02-27T07:33:08;2.57;;;2.37;;
6661;SDS011;3367;48.714;8.994;2023-02-27T07:35:35;4.20;;;3.07;;
6661;SDS011;3367;48.714;8.994;2023-02-27T07:38:02;3.77;;;2.60;;
6661;SDS011;3367;48.714;8.994;2023-02-27T07:40:30;3.53;;;2.87;;
6661;SDS011;3367;48.714;8.994;2023-02-27T07:42:57;4.23;;;2.80;;
6661;SDS011;3367;48.714;8.994;2023-02-27T07:45:23;3.77;;;3.47;;
6661;SDS011;3367;48.714;8.994;2023-02-27T07:47:50;3.17;;;2.70;;
6661;SDS011;3367;48.714;8.994;2023-02-27T07:50:17;3.47;;;3.00;;
6661;SDS011;3367;48.714;8.994;2023-02-27T07:52:44;4.47;;;2.90;;
6661;SDS011;3367;48.714;8.994;2023-02-27T07:55:11;9.77;;;2.80;;
6661;SDS011;3367;48.714;8.994;2023-02-27T07:57:40;3.63;;;2.70;;
6661;SDS011;3367;48.714;8.994;2023-02-27T08:00:07;3.27;;;2.40;;
6661;SDS011;3367;48.714;8.994;2023-02-27T08:02:35;2.83;;;2.63;;
6661;SDS011;3367;48.714;8.994;2023-02-27T08:05:04;4.07;;;2.27;;
6661;SDS011;3367;48.714;8.994;2023-02-27T08:07:32;4.23;;;2.63;;
6661;SDS011;3367;48.714;8.994;2023-02-27T08:10:00;5.43;;;3.07;;
6661;SDS011;3367;48.714;8.994;2023-02-27T08:12:27;4.50;;;2.40;;
6661;SDS011;3367;48.714;8.994;2023-02-27T08:14:56;2.77;;;2.57;;
6661;SDS011;3367;48.714;8.994;2023-02-27T08:17:23;3.70;;;2.93;;
6661;SDS011;3367;48.714;8.994;2023-02-27T08:19:50;2.47;;;2.27;;
6661;SDS011;3367;48.714;8.994;2023-02-27T08:22:16;2.70;;;2.50;;
6661;SDS011;3367;48.714;8.994;2023-02-27T08:24:43;2.97;;;2.77;;
6661;SDS011;3367;48.714;8.994;2023-02-27T08:27:10;2.93;;;2.10;;
6661;SDS011;3367;48.714;8.994;2023-02-27T08:29:37;3.17;;;2.87;;
6661;SDS011;3367;48.714;8.994;2023-02-27T08:32:05;3.00;;;2.63;;
6661;SDS011;3367;48.714;8.994;2023-02-27T08:34:32;2.50;;;2.30;;
6661;SDS011;3367;48.714;8.994;2023-02-27T08:36:58;5.13;;;2.37;;
6661;SDS011;3367;48.714;8.994;2023-02-27T08:39:25;4.17;;;2.77;;
6661;SDS011;3367;48.714;8.994;2023-02-27T08:41:52;3.73;;;2.43;;
6661;SDS011;3367;48.714;8.994;2023-02-27T08:44:19;3.10;;;2.43;;
6661;SDS011;3367;48.714;8.994;2023-02-27T08:46:46;2.83;;;2.57;;
6661;SDS011;3367;48.714;8.994;2023-02-27T08:49:14;3.07;;;2.50;;
6661;SDS011;3367;48.714;8.994;2023-02-27T08:51:41;4.83;;;2.23;;
6661;SDS011;3367;48.714;8.994;2023-02-27T08:54:08;4.37;;;3.10;;
6661;SDS011;3367;48.714;8.994;2023-02-27T08:56:34;2.73;;;2.10;;
6661;SDS011;3367;48.714;8.994;2023-02-27T08:59:01;5.47;;;2.10;;
6661;SDS011;3367;48.714;8.994;2023-02-27T09:01:28;2.83;;;2.63;;
6661;SDS011;3367;48.714;8.994;2023-02-27T09:03:58;5.87;;;2.30;;
6661;SDS011;3367;48.714;8.994;2023-02-27T09:06:27;2.40;;;2.20;;
6661;SDS011;3367;48.714;8.994;2023-02-27T09:08:54;2.60;;;2.40;;
6661;SDS011;3367;48.714;8.994;2023-02-27T09:11:22;3.33;;;2.20;;
6661;SDS011;3367;48.714;8.994;2023-02-27T09:13:49;3.33;;;2.77;;
6661;SDS011;3367;48.714;8.994;2023-02-27T09:16:16;3.33;;;2.20;;
6661;SDS011;3367;48.714;8.994;2023-02-27T09:18:43;3.53;;;2.50;;
6661;SDS011;3367;48.714;8.994;2023-02-27T09:21:10;2.83;;;2.13;;
6661;SDS011;3367;48.714;8.994;2023-02-27T09:23:39;6.10;;;2.83;;
6661;SDS011;3367;48.714;8.994;2023-02-27T09:26:06;5.50;;;2.60;;
6661;SDS011;3367;48.714;8.994;2023-02-27T09:28:34;5.40;;;2.00;;
6661;SDS011;3367;48.714;8.994;2023-02-27T09:31:01;4.43;;;2.67;;
6661;SDS011;3367;48.714;8.994;2023-02-27T09:33:29;5.67;;;2.47;;
6661;SDS011;3367;48.714;8.994;2023-02-27T09:35:56;2.60;;;2.40;;
6661;SDS011;3367;48.714;8.994;2023-02-27T09:38:23;6.40;;;2.30;;
6661;SDS011;3367;48.714;8.994;2023-02-27T09:40:52;3.10;;;2.30;;
6661;SDS011;3367;48.714;8.994;2023-02-27T09:43:33;3.83;;;2.20;;
6661;SDS011;3367;48.714;8.994;2023-02-27T09:46:04;2.70;;;1.93;;
6661;SDS011;3367;48.714;8.994;2023-02-27T09:48:33;2.40;;;2.13;;
6661;SDS011;3367;48.714;8.994;2023-02-27T09:51:04;6.93;;;2.20;;
6661;SDS011;3367;48.714;8.994;2023-02-27T09:53:32;2.83;;;2.10;;
6661;SDS011;3367;48.714;8.994;2023-02-27T09:56:06;2.00;;;1.80;;
6661;SDS011;3367;48.714;8.994;2023-02-27T09:58:42;2.60;;;1.70;;
6661;SDS011;3367;48.714;8.994;2023-02-27T10:01:18;4.20;;;1.67;;
6661;SDS011;3367;48.714;8.994;2023-02-27T10:03:55;5.03;;;2.30;;
6661;SDS011;3367;48.714;8.994;2023-02-27T10:06:43;3.87;;;2.20;;
6661;SDS011;3367;48.714;8.994;2023-02-27T10:09:17;2.40;;;2.20;;
6661;SDS011;3367;48.714;8.994;2023-02-27T10:11:59;2.20;;;2.10;;
6661;SDS011;3367;48.714;8.994;2023-02-27T10:14:37;2.20;;;2.00;;
6661;SDS011;3367;48.714;8.994;2023-02-27T10:17:11;2.00;;;1.90;;
6661;SDS011;3367;48.714;8.994;2023-02-27T10:19:43;2.23;;;1.63;;
6661;SDS011;3367;48.714;8.994;2023-02-27T10:22:13;2.10;;;1.90;;
6661;SDS011;3367;48.714;8.994;2023-02-27T10:24:48;2.30;;;1.67;;
6661;SDS011;3367;48.714;8.994;2023-02-27T10:27:19;2.23;;;2.03;;
6661;SDS011;3367;48.714;8.994;2023-02-27T10:29:47;3.23;;;1.47;;
6661;SDS011;3367;48.714;8.994;2023-02-27T10:32:15;4.23;;;1.70;;
6661;SDS011;3367;48.714;8.994;2023-02-27T10:34:47;1.40;;;1.30;;
6661;SDS011;3367;48.714;8.994;2023-02-27T10:37:18;4.23;;;1.60;;
6661;SDS011;3367;48.714;8.994;2023-02-27T10:39:48;1.53;;;1.20;;
6661;SDS011;3367;48.714;8.994;2023-02-27T10:42:20;1.20;;;1.10;;
6661;SDS011;3367;48.714;8.994;2023-02-27T10:44:49;1.70;;;1.60;;
6661;SDS011;3367;48.714;8.994;2023-02-27T10:47:17;2.60;;;1.50;;
6661;SDS011;3367;48.714;8.994;2023-02-27T10:49:47;1.13;;;1.03;;
6661;SDS011;3367;48.714;8.994;2023-02-27T10:52:15;3.57;;;1.40;;
6661;SDS011;3367;48.714;8.994;2023-02-27T10:54:44;4.30;;;1.40;;
6661;SDS011;3367;48.714;8.994;2023-02-27T10:57:20;2.77;;;1.23;;
6661;SDS011;3367;48.714;8.994;2023-02-27T10:59:52;3.77;;;1.03;;
6661;SDS011;3367;48.714;8.994;2023-02-27T11:02:22;1.87;;;1.17;;
6661;SDS011;3367;48.714;8.994;2023-02-27T11:04:53;1.60;;;1.20;;
6661;SDS011;3367;48.714;8.994;2023-02-27T11:07:29;2.30;;;1.20;;
6661;SDS011;3367;48.714;8.994;2023-02-27T11:09:59;3.73;;;1.50;;
6661;SDS011;3367;48.714;8.994;2023-02-27T11:12:42;1.43;;;1.27;;
6661;SDS011;3367;48.714;8.994;2023-02-27T11:15:22;3.27;;;1.30;;
6661;SDS011;3367;48.714;8.994;2023-02-27T11:17:50;2.30;;;1.00;;
6661;SDS011;3367;48.714;8.994;2023-02-27T11:20:30;5.33;;;2.37;;
6661;SDS011;3367;48.714;8.994;2023-02-27T11:23:05;2.30;;;1.40;;
6661;SDS011;3367;48.714;8.994;2023-02-27T11:25:38;2.17;;;1.43;;
6661;SDS011;3367;48.714;8.994;2023-02-27T11:28:17;4.80;;;1.40;;
6661;SDS011;3367;48.714;8.994;2023-02-27T11:30:54;2.07;;;1.37;;
6661;SDS011;3367;48.714;8.994;2023-02-27T11:33:22;3.17;;;1.50;;
6661;SDS011;3367;48.714;8.994;2023-02-27T11:35:51;1.70;;;1.53;;
6661;SDS011;3367;48.714;8.994;2023-02-27T11:38:19;1.93;;;1.07;;
6661;SDS011;3367;48.714;8.994;2023-02-27T11:40:50;2.37;;;1.27;;
6661;SDS011;3367;48.714;8.994;2023-02-27T11:43:21;1.77;;;1.27;;
6661;SDS011;3367;48.714;8.994;2023-02-27T11:45:50;2.17;;;1.20;;
6661;SDS011;3367;48.714;8.994;2023-02-27T11:48:20;1.30;;;1.17;;
6661;SDS011;3367;48.714;8.994;2023-02-27T11:54:17;1.50;;;1.40;;
6661;SDS011;3367;48.714;8.994;2023-02-27T11:56:55;2.10;;;1.30;;
6661;SDS011;3367;48.714;8.994;2023-02-27T11:59:29;1.40;;;1.00;;
6661;SDS011;3367;48.714;8.994;2023-02-27T12:02:04;1.60;;;1.27;;
6661;SDS011;3367;48.714;8.994;2023-02-27T12:04:43;3.90;;;1.87;;
6661;SDS011;3367;48.714;8.994;2023-02-27T12:07:17;1.63;;;1.43;;
6661;SDS011;3367;48.714;8.994;2023-02-27T12:09:49;3.57;;;1.60;;
6661;SDS011;3367;48.714;8.994;2023-02-27T12:12:25;3.03;;;1.23;;
6661;SDS011;3367;48.714;8.994;2023-02-27T12:15:01;2.30;;;1.50;;
6661;SDS011;3367;48.714;8.994;2023-02-27T12:17:33;3.00;;;1.60;;
6661;SDS011;3367;48.714;8.994;2023-02-27T12:20:17;1.50;;;1.40;;
6661;SDS011;3367;48.714;8.994;2023-02-27T12:22:49;5.33;;;1.40;;
6661;SDS011;3367;48.714;8.994;2023-02-27T12:25:22;2.67;;;1.87;;
6661;SDS011;3367;48.714;8.994;2023-02-27T12:27:57;2.10;;;1.50;;
6661;SDS011;3367;48.714;8.994;2023-02-27T12:30:32;2.63;;;1.40;;
6661;SDS011;3367;48.714;8.994;2023-02-27T12:33:08;2.23;;;1.60;;
6661;SDS011;3367;48.714;8.994;2023-02-27T12:35:41;1.60;;;1.50;;
6661;SDS011;3367;48.714;8.994;2023-02-27T12:38:10;2.13;;;1.70;;
6661;SDS011;3367;48.714;8.994;2023-02-27T12:40:42;1.77;;;1.60;;
6661;SDS011;3367;48.714;8.994;2023-02-27T12:43:24;2.60;;;1.57;;
6661;SDS011;3367;48.714;8.994;2023-02-27T12:46:02;1.67;;;1.57;;
6661;SDS011;3367;48.714;8.994;2023-02-27T12:48:50;1.63;;;1.43;;
6661;SDS011;3367;48.714;8.994;2023-02-27T12:51:29;1.87;;;1.57;;
6661;SDS011;3367;48.714;8.994;2023-02-27T12:54:25;1.50;;;1.40;;
6661;SDS011;3367;48.714;8.994;2023-02-27T12:57:08;1.63;;;1.40;;
6661;SDS011;3367;48.714;8.994;2023-02-27T12:59:46;6.17;;;1.20;;
6661;SDS011;3367;48.714;8.994;2023-02-27T13:02:29;2.30;;;1.87;;
6661;SDS011;3367;48.714;8.994;2023-02-27T13:05:14;1.50;;;1.40;;
6661;SDS011;3367;48.714;8.994;2023-02-27T13:07:54;1.37;;;1.27;;
6661;SDS011;3367;48.714;8.994;2023-02-27T13:10:28;1.23;;;1.10;;
6661;SDS011;3367;48.714;8.994;2023-02-27T13:12:59;1.37;;;1.27;;
6661;SDS011;3367;48.714;8.994;2023-02-27T13:15:32;1.40;;;1.20;;
6661;SDS011;3367;48.714;8.994;2023-02-27T13:18:07;1.73;;;1.30;;
6661;SDS011;3367;48.714;8.994;2023-02-27T13:20:43;2.70;;;1.30;;
6661;SDS011;3367;48.714;8.994;2023-02-27T13:23:17;1.53;;;1.43;;
6661;SDS011;3367;48.714;8.994;2023-02-27T13:25:49;7.03;;;1.67;;
6661;SDS011;3367;48.714;8.994;2023-02-27T13:28:18;1.83;;;1.57;;
6661;SDS011;3367;48.714;8.994;2023-02-27T13:30:51;1.80;;;1.70;;
6661;SDS011;3367;48.714;8.994;2023-02-27T13:33:29;2.90;;;1.40;;
6661;SDS011;3367;48.714;8.994;2023-02-27T13:36:02;1.20;;;1.10;;
6661;SDS011;3367;48.714;8.994;2023-02-27T13:38:42;3.77;;;1.93;;
6661;SDS011;3367;48.714;8.994;2023-02-27T13:53:18;6.23;;;1.70;;
6661;SDS011;3367;48.714;8.994;2023-02-27T13:55:48;3.30;;;1.20;;
6661;SDS011;3367;48.714;8.994;2023-02-27T13:58:18;1.53;;;1.30;;
6661;SDS011;3367;48.714;8.994;2023-02-27T14:00:56;2.10;;;1.47;;
6661;SDS011;3367;48.714;8.994;2023-02-27T14:03:26;1.10;;;1.00;;
6661;SDS011;3367;48.714;8.994;2023-02-27T14:05:56;3.07;;;1.17;;
6661;SDS011;3367;48.714;8.994;2023-02-27T14:08:29;1.57;;;1.47;;
6661;SDS011;3367;48.714;8.994;2023-02-27T14:11:11;3.53;;;1.03;;
6661;SDS011;3367;48.714;8.994;2023-02-27T14:14:04;4.67;;;1.73;;
6661;SDS011;3367;48.714;8.994;2023-02-27T14:16:49;1.40;;;1.30;;
6661;SDS011;3367;48.714;8.994;2023-02-27T14:22:28;1.67;;;1.10;;
6661;SDS011;3367;48.714;8.994;2023-02-27T14:24:59;3.20;;;1.70;;
6661;SDS011;3367;48.714;8.994;2023-02-27T14:27:31;3.80;;;1.60;;
6661;SDS011;3367;48.714;8.994;2023-02-27T14:30:21;1.33;;;1.23;;
6661;SDS011;3367;48.714;8.994;2023-02-27T14:32:53;2.93;;;1.70;;
6661;SDS011;3367;48.714;8.994;2023-02-27T14:35:22;1.63;;;1.53;;
6661;SDS011;3367;48.714;8.994;2023-02-27T14:37:49;1.10;;;1.00;;
6661;SDS011;3367;48.714;8.994;2023-02-27T14:40:20;1.93;;;1.33;;
6661;SDS011;3367;48.714;8.994;2023-02-27T14:42:52;1.80;;;1.70;;
6661;SDS011;3367;48.714;8.994;2023-02-27T14:45:27;2.70;;;1.77;;
6661;SDS011;3367;48.714;8.994;2023-02-27T14:47:55;1.67;;;1.57;;
6661;SDS011;3367;48.714;8.994;2023-02-27T14:50:24;12.00;;;1.70;;
6661;SDS011;3367;48.714;8.994;2023-02-27T14:52:53;2.20;;;1.30;;
6661;SDS011;3367;48.714;8.994;2023-02-27T14:55:22;1.20;;;1.10;;
6661;SDS011;3367;48.714;8.994;2023-02-27T14:57:54;4.13;;;1.73;;
6661;SDS011;3367;48.714;8.994;2023-02-27T15:00:30;2.10;;;1.47;;
6661;SDS011;3367;48.714;8.994;2023-02-27T15:02:58;2.37;;;1.40;;
6661;SDS011;3367;48.714;8.994;2023-02-27T15:05:27;2.20;;;1.53;;
6661;SDS011;3367;48.714;8.994;2023-02-27T15:07:56;1.77;;;1.43;;
6661;SDS011;3367;48.714;8.994;2023-02-27T15:10:25;1.93;;;1.00;;
6661;SDS011;3367;48.714;8.994;2023-02-27T15:12:56;1.77;;;1.50;;
6661;SDS011;3367;48.714;8.994;2023-02-27T15:15:23;1.73;;;1.20;;
6661;SDS011;3367;48.714;8.994;2023-02-27T15:17:51;1.30;;;1.20;;
6661;SDS011;3367;48.714;8.994;2023-02-27T15:20:22;2.93;;;1.27;;
6661;SDS011;3367;48.714;8.994;2023-02-27T15:22:51;2.60;;;1.20;;
6661;SDS011;3367;48.714;8.994;2023-02-27T15:25:27;1.57;;;1.47;;
6661;SDS011;3367;48.714;8.994;2023-02-27T15:27:56;3.43;;;2.07;;
6661;SDS011;3367;48.714;8.994;2023-02-27T15:30:27;1.27;;;1.17;;
6661;SDS011;3367;48.714;8.994;2023-02-27T15:32:54;2.17;;;1.30;;
6661;SDS011;3367;48.714;8.994;2023-02-27T15:35:22;2.10;;;1.67;;
6661;SDS011;3367;48.714;8.994;2023-02-27T15:37:51;4.43;;;1.90;;
6661;SDS011;3367;48.714;8.994;2023-02-27T15:40:21;7.23;;;1.70;;
6661;SDS011;3367;48.714;8.994;2023-02-27T15:42:52;1.80;;;1.60;;
6661;SDS011;3367;48.714;8.994;2023-02-27T15:45:20;2.10;;;1.43;;
6661;SDS011;3367;48.714;8.994;2023-02-27T15:47:50;1.57;;;1.20;;
6661;SDS011;3367;48.714;8.994;2023-02-27T15:50:23;3.40;;;1.77;;
6661;SDS011;3367;48.714;8.994;2023-02-27T15:52:53;3.60;;;1.23;;
6661;SDS011;3367;48.714;8.994;2023-02-27T15:55:25;1.23;;;1.13;;
6661;SDS011;3367;48.714;8.994;2023-02-27T15:57:55;2.20;;;1.40;;
6661;SDS011;3367;48.714;8.994;2023-02-27T16:00:23;1.90;;;1.20;;
6661;SDS011;3367;48.714;8.994;2023-02-27T16:02:50;2.80;;;2.00;;
6661;SDS011;3367;48.714;8.994;2023-02-27T16:05:20;2.33;;;1.43;;